sensor_id;sensor_type;location;lat;lon;timestamp;P1;durP1;ratioP1;P2;durP2;ratioP2
27576;SDS011;15011;53.380;10.034;2023-08-30T00:07:20;2.60;;;2.40;;
27576;SDS011;15011;53.380;10.034;2023-08-30T00:22:22;5.00;;;3.03;;
27576;SDS011;15011;53.380;10.034;2023-08-30T00:27:23;3.55;;;3.15;;
27576;SDS011;15011;53.380;10.034;2023-08-30T00:32:24;3.10;;;2.80;;
27576;SDS011;15011;53.380;10.034;2023-08-30T00:37:24;3.93;;;2.80;;
27576;SDS011;15011;53.380;10.034;2023-08-30T00:52:25;2.67;;;2.47;;
27576;SDS011;15011;53.380;10.034;2023-08-30T00:57:26;4.23;;;3.43;;
27576;SDS011;15011;53.380;10.034;2023-08-30T01:02:26;3.87;;;3.30;;
27576;SDS011;15011;53.380;10.034;2023-08-30T01:12:37;4.27;;;3.87;;
27576;SDS011;15011;53.380;10.034;2023-08-30T01:17:41;4.10;;;3.70;;
27576;SDS011;15011;53.380;10.034;2023-08-30T01:28:11;4.05;;;3.50;;
27576;SDS011;15011;53.380;10.034;2023-08-30T01:38:14;4.93;;;3.95;;
27576;SDS011;15011;53.380;10.034;2023-08-30T01:48:16;5.00;;;3.83;;
27576;SDS011;15011;53.380;10.034;2023-08-30T01:53:17;5.28;;;4.07;;
27576;SDS011;15011;53.380;10.034;2023-08-30T02:03:18;4.30;;;3.90;;
27576;SDS011;15011;53.380;10.034;2023-08-30T02:18:20;4.95;;;3.95;;
27576;SDS011;15011;53.380;10.034;2023-08-30T02:28:23;5.32;;;3.90;;
27576;SDS011;15011;53.380;10.034;2023-08-30T02:33:23;4.78;;;4.35;;
27576;SDS011;15011;53.380;10.034;2023-08-30T02:38:24;5.43;;;3.70;;
27576;SDS011;15011;53.380;10.034;2023-08-30T02:53:25;4.32;;;3.60;;
27576;SDS011;15011;53.380;10.034;2023-08-30T02:58:25;5.20;;;3.27;;
27576;SDS011;15011;53.380;10.034;2023-08-30T03:08:26;6.45;;;3.55;;
27576;SDS011;15011;53.380;10.034;2023-08-30T03:13:26;4.73;;;3.77;;
27576;SDS011;15011;53.380;10.034;2023-08-30T03:18:27;4.30;;;3.47;;
27576;SDS011;15011;53.380;10.034;2023-08-30T03:23:27;3.90;;;3.50;;
27576;SDS011;15011;53.380;10.034;2023-08-30T03:38:28;4.43;;;3.28;;
27576;SDS011;15011;53.380;10.034;2023-08-30T03:43:28;3.77;;;3.47;;
27576;SDS011;15011;53.380;10.034;2023-08-30T03:48:29;3.72;;;3.42;;
27576;SDS011;15011;53.380;10.034;2023-08-30T03:53:30;3.53;;;3.20;;
27576;SDS011;15011;53.380;10.034;2023-08-30T03:58:31;4.27;;;3.47;;
27576;SDS011;15011;53.380;10.034;2023-08-30T04:03:31;3.80;;;3.38;;
27576;SDS011;15011;53.380;10.034;2023-08-30T04:08:32;4.10;;;3.70;;
27576;SDS011;15011;53.380;10.034;2023-08-30T04:13:32;3.90;;;3.50;;
27576;SDS011;15011;53.380;10.034;2023-08-30T04:18:35;3.88;;;3.58;;
27576;SDS011;15011;53.380;10.034;2023-08-30T04:23:35;4.18;;;3.28;;
27576;SDS011;15011;53.380;10.034;2023-08-30T04:28:36;5.37;;;4.20;;
27576;SDS011;15011;53.380;10.034;2023-08-30T04:33:36;4.00;;;3.60;;
27576;SDS011;15011;53.380;10.034;2023-08-30T04:38:37;3.97;;;3.47;;
27576;SDS011;15011;53.380;10.034;2023-08-30T04:43:37;5.03;;;3.57;;
27576;SDS011;15011;53.380;10.034;2023-08-30T04:48:38;4.33;;;3.67;;
27576;SDS011;15011;53.380;10.034;2023-08-30T04:53:38;3.67;;;3.30;;
27576;SDS011;15011;53.380;10.034;2023-08-30T04:58:39;5.45;;;4.57;;
27576;SDS011;15011;53.380;10.034;2023-08-30T05:03:40;5.65;;;4.20;;
27576;SDS011;15011;53.380;10.034;2023-08-30T05:08:40;5.80;;;4.70;;
27576;SDS011;15011;53.380;10.034;2023-08-30T05:13:41;8.13;;;5.30;;
27576;SDS011;15011;53.380;10.034;2023-08-30T05:18:41;5.57;;;4.60;;
27576;SDS011;15011;53.380;10.034;2023-08-30T05:23:42;6.33;;;4.43;;
27576;SDS011;15011;53.380;10.034;2023-08-30T05:28:42;7.67;;;4.80;;
27576;SDS011;15011;53.380;10.034;2023-08-30T05:33:43;4.70;;;3.80;;
27576;SDS011;15011;53.380;10.034;2023-08-30T05:38:43;5.88;;;4.30;;
27576;SDS011;15011;53.380;10.034;2023-08-30T05:43:44;4.60;;;4.17;;
27576;SDS011;15011;53.380;10.034;2023-08-30T05:48:44;6.10;;;4.00;;
27576;SDS011;15011;53.380;10.034;2023-08-30T05:53:45;8.73;;;4.68;;
27576;SDS011;15011;53.380;10.034;2023-08-30T05:58:46;5.20;;;4.40;;
27576;SDS011;15011;53.380;10.034;2023-08-30T06:03:46;5.07;;;4.33;;
27576;SDS011;15011;53.380;10.034;2023-08-30T06:08:47;4.70;;;4.30;;
27576;SDS011;15011;53.380;10.034;2023-08-30T06:13:47;5.47;;;4.63;;
27576;SDS011;15011;53.380;10.034;2023-08-30T06:18:48;6.33;;;4.77;;
27576;SDS011;15011;53.380;10.034;2023-08-30T06:23:48;5.57;;;4.97;;
27576;SDS011;15011;53.380;10.034;2023-08-30T06:28:48;5.13;;;4.13;;
27576;SDS011;15011;53.380;10.034;2023-08-30T06:33:49;5.53;;;4.60;;
27576;SDS011;15011;53.380;10.034;2023-08-30T06:38:51;6.22;;;4.50;;
27576;SDS011;15011;53.380;10.034;2023-08-30T06:43:51;5.50;;;4.97;;
27576;SDS011;15011;53.380;10.034;2023-08-30T06:48:51;8.27;;;6.07;;
27576;SDS011;15011;53.380;10.034;2023-08-30T06:53:52;7.77;;;6.30;;
27576;SDS011;15011;53.380;10.034;2023-08-30T06:58:52;8.18;;;5.82;;
27576;SDS011;15011;53.380;10.034;2023-08-30T07:18:54;9.13;;;6.38;;
27576;SDS011;15011;53.380;10.034;2023-08-30T07:23:54;6.97;;;6.27;;
27576;SDS011;15011;53.380;10.034;2023-08-30T07:28:55;9.23;;;6.67;;
27576;SDS011;15011;53.380;10.034;2023-08-30T07:33:55;10.27;;;7.78;;
27576;SDS011;15011;53.380;10.034;2023-08-30T07:38:56;10.23;;;7.43;;
27576;SDS011;15011;53.380;10.034;2023-08-30T07:43:57;9.13;;;7.07;;
27576;SDS011;15011;53.380;10.034;2023-08-30T07:48:57;8.73;;;6.97;;
27576;SDS011;15011;53.380;10.034;2023-08-30T07:53:58;9.88;;;7.70;;
27576;SDS011;15011;53.380;10.034;2023-08-30T07:58:58;11.37;;;7.27;;
27576;SDS011;15011;53.380;10.034;2023-08-30T08:03:59;11.80;;;8.60;;
27576;SDS011;15011;53.380;10.034;2023-08-30T08:08:59;11.83;;;8.83;;
27576;SDS011;15011;53.380;10.034;2023-08-30T08:14:00;9.45;;;7.85;;
27576;SDS011;15011;53.380;10.034;2023-08-30T08:19:00;8.83;;;6.47;;
27576;SDS011;15011;53.380;10.034;2023-08-30T08:24:01;9.38;;;7.22;;
27576;SDS011;15011;53.380;10.034;2023-08-30T08:29:02;9.00;;;6.13;;
27576;SDS011;15011;53.380;10.034;2023-08-30T08:34:07;9.07;;;7.32;;
27576;SDS011;15011;53.380;10.034;2023-08-30T08:39:10;11.00;;;7.90;;
27576;SDS011;15011;53.380;10.034;2023-08-30T08:44:10;8.80;;;6.73;;
27576;SDS011;15011;53.380;10.034;2023-08-30T08:49:12;10.45;;;7.38;;
27576;SDS011;15011;53.380;10.034;2023-08-30T08:54:14;8.13;;;7.05;;
27576;SDS011;15011;53.380;10.034;2023-08-30T08:59:14;7.53;;;6.07;;
27576;SDS011;15011;53.380;10.034;2023-08-30T09:04:15;7.43;;;5.60;;
27576;SDS011;15011;53.380;10.034;2023-08-30T09:09:15;6.77;;;5.20;;
27576;SDS011;15011;53.380;10.034;2023-08-30T09:14:16;8.32;;;6.07;;
27576;SDS011;15011;53.380;10.034;2023-08-30T09:19:19;8.43;;;5.57;;
27576;SDS011;15011;53.380;10.034;2023-08-30T09:24:20;7.07;;;5.32;;
27576;SDS011;15011;53.380;10.034;2023-08-30T09:29:21;6.45;;;4.68;;
27576;SDS011;15011;53.380;10.034;2023-08-30T09:34:23;5.68;;;4.75;;
27576;SDS011;15011;53.380;10.034;2023-08-30T09:39:25;6.53;;;4.05;;
27576;SDS011;15011;53.380;10.034;2023-08-30T09:44:29;5.50;;;4.20;;
27576;SDS011;15011;53.380;10.034;2023-08-30T09:49:29;5.25;;;3.80;;
27576;SDS011;15011;53.380;10.034;2023-08-30T09:54:38;7.25;;;4.85;;
27576;SDS011;15011;53.380;10.034;2023-08-30T09:59:41;6.10;;;4.15;;
27576;SDS011;15011;53.380;10.034;2023-08-30T10:04:42;6.87;;;4.90;;
27576;SDS011;15011;53.380;10.034;2023-08-30T10:09:42;4.07;;;3.28;;
27576;SDS011;15011;53.380;10.034;2023-08-30T10:14:43;4.38;;;3.30;;
27576;SDS011;15011;53.380;10.034;2023-08-30T10:19:44;3.30;;;2.70;;
27576;SDS011;15011;53.380;10.034;2023-08-30T10:24:51;4.90;;;3.28;;
27576;SDS011;15011;53.380;10.034;2023-08-30T10:29:54;4.70;;;3.80;;
27576;SDS011;15011;53.380;10.034;2023-08-30T10:34:55;5.55;;;3.60;;
27576;SDS011;15011;53.380;10.034;2023-08-30T10:40:01;5.77;;;3.57;;
27576;SDS011;15011;53.380;10.034;2023-08-30T10:45:06;5.22;;;3.47;;
27576;SDS011;15011;53.380;10.034;2023-08-30T10:50:08;5.38;;;3.20;;
27576;SDS011;15011;53.380;10.034;2023-08-30T10:55:11;3.80;;;2.08;;
27576;SDS011;15011;53.380;10.034;2023-08-30T11:00:18;2.80;;;2.38;;
27576;SDS011;15011;53.380;10.034;2023-08-30T11:05:21;3.92;;;3.03;;
27576;SDS011;15011;53.380;10.034;2023-08-30T11:10:23;3.38;;;2.72;;
27576;SDS011;15011;53.380;10.034;2023-08-30T11:15:24;3.40;;;3.10;;
27576;SDS011;15011;53.380;10.034;2023-08-30T11:20:27;3.45;;;2.60;;
27576;SDS011;15011;53.380;10.034;2023-08-30T11:25:27;3.40;;;2.45;;
27576;SDS011;15011;53.380;10.034;2023-08-30T11:30:28;3.45;;;2.97;;
27576;SDS011;15011;53.380;10.034;2023-08-30T11:35:28;4.17;;;3.53;;
27576;SDS011;15011;53.380;10.034;2023-08-30T11:40:32;3.22;;;2.90;;
27576;SDS011;15011;53.380;10.034;2023-08-30T11:45:34;4.90;;;3.20;;
27576;SDS011;15011;53.380;10.034;2023-08-30T11:50:34;4.25;;;2.97;;
27576;SDS011;15011;53.380;10.034;2023-08-30T11:55:35;3.80;;;2.92;;
27576;SDS011;15011;53.380;10.034;2023-08-30T12:00:35;3.93;;;3.13;;
27576;SDS011;15011;53.380;10.034;2023-08-30T12:05:43;4.28;;;3.35;;
27576;SDS011;15011;53.380;10.034;2023-08-30T12:10:44;4.55;;;3.38;;
27576;SDS011;15011;53.380;10.034;2023-08-30T12:15:46;4.55;;;3.55;;
27576;SDS011;15011;53.380;10.034;2023-08-30T12:20:54;3.70;;;3.35;;
27576;SDS011;15011;53.380;10.034;2023-08-30T12:26:02;5.18;;;3.53;;
27576;SDS011;15011;53.380;10.034;2023-08-30T12:31:11;4.35;;;3.60;;
27576;SDS011;15011;53.380;10.034;2023-08-30T12:36:12;3.93;;;2.83;;
27576;SDS011;15011;53.380;10.034;2023-08-30T12:41:12;5.00;;;3.25;;
27576;SDS011;15011;53.380;10.034;2023-08-30T12:46:13;3.67;;;3.07;;
27576;SDS011;15011;53.380;10.034;2023-08-30T12:51:13;4.60;;;3.90;;
27576;SDS011;15011;53.380;10.034;2023-08-30T12:56:15;5.13;;;3.15;;
27576;SDS011;15011;53.380;10.034;2023-08-30T13:01:15;4.20;;;2.87;;
27576;SDS011;15011;53.380;10.034;2023-08-30T13:06:16;5.13;;;3.13;;
27576;SDS011;15011;53.380;10.034;2023-08-30T13:11:16;3.97;;;3.00;;
27576;SDS011;15011;53.380;10.034;2023-08-30T13:16:16;3.53;;;2.67;;
27576;SDS011;15011;53.380;10.034;2023-08-30T13:21:17;3.23;;;2.90;;
27576;SDS011;15011;53.380;10.034;2023-08-30T13:26:17;2.70;;;2.50;;
27576;SDS011;15011;53.380;10.034;2023-08-30T13:31:18;2.97;;;2.67;;
27576;SDS011;15011;53.380;10.034;2023-08-30T13:36:18;4.03;;;2.87;;
27576;SDS011;15011;53.380;10.034;2023-08-30T13:41:19;3.13;;;2.60;;
27576;SDS011;15011;53.380;10.034;2023-08-30T13:46:19;3.72;;;2.80;;
27576;SDS011;15011;53.380;10.034;2023-08-30T13:51:23;3.33;;;2.90;;
27576;SDS011;15011;53.380;10.034;2023-08-30T13:56:25;3.03;;;2.67;;
27576;SDS011;15011;53.380;10.034;2023-08-30T14:01:25;3.13;;;2.57;;
27576;SDS011;15011;53.380;10.034;2023-08-30T14:06:25;3.20;;;2.40;;
27576;SDS011;15011;53.380;10.034;2023-08-30T14:11:27;3.22;;;2.58;;
27576;SDS011;15011;53.380;10.034;2023-08-30T14:16:27;3.70;;;2.60;;
27576;SDS011;15011;53.380;10.034;2023-08-30T14:21:28;3.40;;;2.83;;
27576;SDS011;15011;53.380;10.034;2023-08-30T14:26:29;3.88;;;2.65;;
27576;SDS011;15011;53.380;10.034;2023-08-30T14:31:29;3.20;;;2.65;;
27576;SDS011;15011;53.380;10.034;2023-08-30T14:36:30;3.97;;;2.70;;
27576;SDS011;15011;53.380;10.034;2023-08-30T14:41:31;3.83;;;2.60;;
27576;SDS011;15011;53.380;10.034;2023-08-30T14:46:32;3.45;;;2.90;;
27576;SDS011;15011;53.380;10.034;2023-08-30T14:51:32;3.57;;;2.63;;
27576;SDS011;15011;53.380;10.034;2023-08-30T14:56:33;3.63;;;2.90;;
27576;SDS011;15011;53.380;10.034;2023-08-30T15:01:33;2.95;;;2.63;;
27576;SDS011;15011;53.380;10.034;2023-08-30T15:06:34;2.87;;;2.57;;
27576;SDS011;15011;53.380;10.034;2023-08-30T15:11:34;3.30;;;2.55;;
27576;SDS011;15011;53.380;10.034;2023-08-30T15:16:35;3.20;;;2.90;;
27576;SDS011;15011;53.380;10.034;2023-08-30T15:21:35;3.15;;;2.85;;
27576;SDS011;15011;53.380;10.034;2023-08-30T15:26:36;5.00;;;2.88;;
27576;SDS011;15011;53.380;10.034;2023-08-30T15:31:37;4.38;;;2.92;;
27576;SDS011;15011;53.380;10.034;2023-08-30T15:36:37;4.30;;;3.13;;
27576;SDS011;15011;53.380;10.034;2023-08-30T15:41:38;4.40;;;3.07;;
27576;SDS011;15011;53.380;10.034;2023-08-30T15:46:38;5.17;;;3.20;;
27576;SDS011;15011;53.380;10.034;2023-08-30T15:51:39;4.05;;;2.80;;
27576;SDS011;15011;53.380;10.034;2023-08-30T15:56:39;3.43;;;2.97;;
27576;SDS011;15011;53.380;10.034;2023-08-30T16:01:40;3.08;;;2.70;;
27576;SDS011;15011;53.380;10.034;2023-08-30T16:06:40;4.03;;;3.03;;
27576;SDS011;15011;53.380;10.034;2023-08-30T16:11:42;3.83;;;3.00;;
27576;SDS011;15011;53.380;10.034;2023-08-30T16:16:42;3.13;;;2.93;;
27576;SDS011;15011;53.380;10.034;2023-08-30T16:21:43;5.40;;;3.20;;
27576;SDS011;15011;53.380;10.034;2023-08-30T16:26:43;4.57;;;3.70;;
27576;SDS011;15011;53.380;10.034;2023-08-30T16:31:44;6.70;;;4.25;;
27576;SDS011;15011;53.380;10.034;2023-08-30T16:36:45;5.50;;;4.25;;
27576;SDS011;15011;53.380;10.034;2023-08-30T16:41:46;7.85;;;5.40;;
27576;SDS011;15011;53.380;10.034;2023-08-30T16:46:48;8.85;;;5.10;;
27576;SDS011;15011;53.380;10.034;2023-08-30T16:51:48;6.10;;;5.20;;
27576;SDS011;15011;53.380;10.034;2023-08-30T16:56:48;6.87;;;5.73;;
27576;SDS011;15011;53.380;10.034;2023-08-30T17:01:49;6.57;;;5.87;;
27576;SDS011;15011;53.380;10.034;2023-08-30T17:06:50;6.97;;;5.53;;
27576;SDS011;15011;53.380;10.034;2023-08-30T17:11:50;9.77;;;5.25;;
27576;SDS011;15011;53.380;10.034;2023-08-30T17:16:51;7.53;;;6.47;;
27576;SDS011;15011;53.380;10.034;2023-08-30T17:21:51;8.00;;;7.20;;
27576;SDS011;15011;53.380;10.034;2023-08-30T17:26:52;10.07;;;7.57;;
27576;SDS011;15011;53.380;10.034;2023-08-30T17:31:52;10.33;;;7.63;;
27576;SDS011;15011;53.380;10.034;2023-08-30T17:36:53;8.00;;;6.80;;
27576;SDS011;15011;53.380;10.034;2023-08-30T17:41:57;8.50;;;7.68;;
27576;SDS011;15011;53.380;10.034;2023-08-30T17:46:58;9.45;;;8.32;;
27576;SDS011;15011;53.380;10.034;2023-08-30T17:51:58;11.02;;;9.15;;
27576;SDS011;15011;53.380;10.034;2023-08-30T17:56:59;9.87;;;8.33;;
27576;SDS011;15011;53.380;10.034;2023-08-30T18:01:59;8.98;;;7.35;;
27576;SDS011;15011;53.380;10.034;2023-08-30T18:07:00;10.50;;;8.90;;
27576;SDS011;15011;53.380;10.034;2023-08-30T18:12:03;12.68;;;8.73;;
27576;SDS011;15011;53.380;10.034;2023-08-30T18:17:03;9.70;;;8.55;;
27576;SDS011;15011;53.380;10.034;2023-08-30T18:22:05;10.85;;;8.65;;
27576;SDS011;15011;53.380;10.034;2023-08-30T18:27:06;10.53;;;8.10;;
27576;SDS011;15011;53.380;10.034;2023-08-30T18:32:06;12.30;;;9.30;;
27576;SDS011;15011;53.380;10.034;2023-08-30T18:37:07;10.85;;;9.32;;
27576;SDS011;15011;53.380;10.034;2023-08-30T18:42:08;9.60;;;8.65;;
27576;SDS011;15011;53.380;10.034;2023-08-30T18:47:08;11.55;;;8.48;;
27576;SDS011;15011;53.380;10.034;2023-08-30T18:52:11;9.50;;;8.50;;
27576;SDS011;15011;53.380;10.034;2023-08-30T18:57:12;11.80;;;8.77;;
27576;SDS011;15011;53.380;10.034;2023-08-30T19:02:13;10.52;;;7.90;;
27576;SDS011;15011;53.380;10.034;2023-08-30T19:07:14;9.82;;;7.63;;
27576;SDS011;15011;53.380;10.034;2023-08-30T19:12:15;8.20;;;7.40;;
27576;SDS011;15011;53.380;10.034;2023-08-30T19:17:15;7.60;;;5.10;;
27576;SDS011;15011;53.380;10.034;2023-08-30T19:22:16;6.40;;;4.38;;
27576;SDS011;15011;53.380;10.034;2023-08-30T19:27:19;6.82;;;4.90;;
27576;SDS011;15011;53.380;10.034;2023-08-30T19:42:24;6.70;;;4.93;;
27576;SDS011;15011;53.380;10.034;2023-08-30T19:52:25;5.73;;;5.13;;
27576;SDS011;15011;53.380;10.034;2023-08-30T19:57:26;5.07;;;4.32;;
27576;SDS011;15011;53.380;10.034;2023-08-30T20:02:28;5.85;;;4.07;;
27576;SDS011;15011;53.380;10.034;2023-08-30T20:07:29;5.50;;;4.07;;
27576;SDS011;15011;53.380;10.034;2023-08-30T20:12:29;7.93;;;4.63;;
27576;SDS011;15011;53.380;10.034;2023-08-30T20:17:30;6.70;;;4.57;;
27576;SDS011;15011;53.380;10.034;2023-08-30T20:22:30;6.28;;;5.13;;
27576;SDS011;15011;53.380;10.034;2023-08-30T20:27:31;5.28;;;4.78;;
27576;SDS011;15011;53.380;10.034;2023-08-30T20:32:33;6.10;;;4.60;;
27576;SDS011;15011;53.380;10.034;2023-08-30T20:37:35;5.93;;;4.72;;
27576;SDS011;15011;53.380;10.034;2023-08-30T20:42:35;13.23;;;7.60;;
27576;SDS011;15011;53.380;10.034;2023-08-30T20:47:36;7.43;;;4.93;;
27576;SDS011;15011;53.380;10.034;2023-08-30T20:52:37;6.45;;;4.80;;
27576;SDS011;15011;53.380;10.034;2023-08-30T20:57:38;5.15;;;4.10;;
27576;SDS011;15011;53.380;10.034;2023-08-30T21:02:38;5.30;;;4.80;;
27576;SDS011;15011;53.380;10.034;2023-08-30T21:12:39;6.25;;;5.03;;
27576;SDS011;15011;53.380;10.034;2023-08-30T21:17:40;7.78;;;5.47;;
27576;SDS011;15011;53.380;10.034;2023-08-30T21:27:41;8.17;;;5.83;;
27576;SDS011;15011;53.380;10.034;2023-08-30T21:37:47;9.93;;;6.70;;
27576;SDS011;15011;53.380;10.034;2023-08-30T21:52:48;10.53;;;7.50;;
27576;SDS011;15011;53.380;10.034;2023-08-30T21:57:48;12.30;;;7.60;;
27576;SDS011;15011;53.380;10.034;2023-08-30T22:02:49;13.60;;;9.10;;
27576;SDS011;15011;53.380;10.034;2023-08-30T22:07:49;13.27;;;8.60;;
27576;SDS011;15011;53.380;10.034;2023-08-30T22:12:50;14.53;;;8.57;;
27576;SDS011;15011;53.380;10.034;2023-08-30T22:17:50;14.63;;;9.33;;
27576;SDS011;15011;53.380;10.034;2023-08-30T22:22:51;14.57;;;9.23;;
27576;SDS011;15011;53.380;10.034;2023-08-30T22:27:52;15.27;;;10.33;;
27576;SDS011;15011;53.380;10.034;2023-08-30T22:32:52;14.50;;;9.90;;
27576;SDS011;15011;53.380;10.034;2023-08-30T22:42:53;14.43;;;9.63;;
27576;SDS011;15011;53.380;10.034;2023-08-30T22:52:55;15.70;;;9.38;;
27576;SDS011;15011;53.380;10.034;2023-08-30T23:02:56;13.03;;;8.37;;
27576;SDS011;15011;53.380;10.034;2023-08-30T23:07:57;13.32;;;8.65;;
27576;SDS011;15011;53.380;10.034;2023-08-30T23:12:58;12.88;;;8.10;;
27576;SDS011;15011;53.380;10.034;2023-08-30T23:27:59;8.95;;;6.63;;
27576;SDS011;15011;53.380;10.034;2023-08-30T23:33:00;10.68;;;6.35;;
27576;SDS011;15011;53.380;10.034;2023-08-30T23:43:01;8.83;;;5.87;;
27576;SDS011;15011;53.380;10.034;2023-08-30T23:53:02;9.87;;;6.20;;
